Time;durP1;ratioP1;P1;durP2;ratioP2;P2;SDS_P1;SDS_P2;PMS_P1;PMS_P2;Temp;Humidity;BMP_temperature;BMP_pressure;BME280_temperature;BME280_humidity;BME280_pressure;Samples;Min_cycle;Max_cycle;Signal;HPM_P1;HPM_P2
2021/10/23 00:01:22;;;;;;;10.20;2.30;;;;;;;8.61;76.69;102577.31;5075248;28;20063;-63
2021/10/23 00:03:47;;;;;;;8.73;2.15;;;;;;;8.60;77.22;102579.06;5075689;28;20067;-59
2021/10/23 00:06:13;;;;;;;7.72;2.35;;;;;;;8.62;77.14;102571.13;5075019;28;20487;-59
2021/10/23 00:08:38;;;;;;;11.43;3.15;;;;;;;8.67;76.12;102578.13;5074774;28;20545;-63
2021/10/23 00:11:04;;;;;;;11.70;2.95;;;;;;;8.67;76.61;102578.13;5075265;28;20021;-61
2021/10/23 00:13:30;;;;;;;15.50;4.55;;;;;;;8.68;77.14;102573.72;5075214;28;20380;-59
2021/10/23 00:15:55;;;;;;;10.80;3.00;;;;;;;8.66;76.42;102571.09;5074646;28;20040;-60
2021/10/23 00:18:20;;;;;;;8.18;2.35;;;;;;;8.70;76.30;102590.44;5074524;28;20032;-61
2021/10/23 00:20:46;;;;;;;11.82;1.90;;;;;;;8.73;76.76;102586.88;5074858;28;20484;-59
2021/10/23 00:23:11;;;;;;;8.60;1.60;;;;;;;8.73;76.27;102585.09;5074987;28;20031;-59
2021/10/23 00:25:36;;;;;;;7.75;1.77;;;;;;;8.73;76.79;102589.53;5075245;28;20052;-59
2021/10/23 00:28:01;;;;;;;8.70;1.88;;;;;;;8.73;76.26;102589.53;5074355;28;20111;-60
2021/10/23 00:30:27;;;;;;;5.53;1.52;;;;;;;8.72;76.11;102598.34;5074570;28;20123;-59
2021/10/23 00:32:54;;;;;;;10.63;2.17;;;;;;;8.69;77.07;102593.94;5074804;28;20051;-59
2021/10/23 00:35:20;;;;;;;9.73;2.17;;;;;;;8.61;77.65;102586.09;5074948;28;20020;-59
2021/10/23 00:37:45;;;;;;;7.28;1.70;;;;;;;8.60;77.84;102578.19;5074443;28;20074;-59
2021/10/23 00:40:11;;;;;;;11.60;2.83;;;;;;;8.59;77.17;102584.38;5074435;28;20036;-59
2021/10/23 00:42:36;;;;;;;6.35;1.48;;;;;;;8.58;77.29;102582.59;5074751;28;20032;-63
2021/10/23 00:45:03;;;;;;;5.20;1.23;;;;;;;8.53;77.92;102580.88;5074688;28;20052;-63
2021/10/23 00:47:28;;;;;;;8.13;1.60;;;;;;;8.51;78.74;102571.22;5074291;28;20024;-59
2021/10/23 00:49:54;;;;;;;8.45;1.60;;;;;;;8.48;78.50;102571.25;5073815;28;20349;-59
2021/10/23 00:52:24;;;;;;;10.10;1.80;;;;;;;8.52;78.48;102576.50;5074362;28;20031;-59
2021/10/23 00:54:50;;;;;;;4.78;1.27;;;;;;;8.54;78.88;102571.19;5074407;28;20466;-59
2021/10/23 00:57:17;;;;;;;8.40;1.60;;;;;;;8.57;78.92;102573.81;5074447;28;20103;-58
2021/10/23 00:59:42;;;;;;;8.55;1.85;;;;;;;8.56;79.52;102574.69;5073333;28;20032;-59
2021/10/23 01:02:08;;;;;;;11.15;1.90;;;;;;;8.55;77.99;102582.66;5074044;28;20030;-60
2021/10/23 01:04:33;;;;;;;9.43;1.50;;;;;;;8.57;78.80;102572.94;5074044;28;20036;-60
2021/10/23 01:06:59;;;;;;;8.25;1.48;;;;;;;8.56;78.62;102581.75;5074485;28;20119;-60
2021/10/23 01:09:25;;;;;;;6.03;1.30;;;;;;;8.51;77.62;102584.44;5073458;28;20469;-59
2021/10/23 01:11:51;;;;;;;4.40;1.00;;;;;;;8.61;75.32;102586.09;5074103;28;20447;-59
2021/10/23 01:14:19;;;;;;;6.35;1.17;;;;;;;8.68;75.30;102592.19;5074456;28;20138;-58
2021/10/23 01:16:49;;;;;;;7.80;1.45;;;;;;;8.76;74.41;102584.19;5074079;28;20380;-59
2021/10/23 01:19:15;;;;;;;6.80;1.15;;;;;;;8.74;75.49;102584.22;5073578;28;20085;-59
2021/10/23 01:21:42;;;;;;;9.23;1.50;;;;;;;8.68;76.12;102586.91;5073814;28;20040;-59
2021/10/23 01:24:08;;;;;;;11.52;1.40;;;;;;;8.58;76.49;102585.25;5073911;28;20050;-63
2021/10/23 01:26:35;;;;;;;7.32;1.35;;;;;;;8.53;75.12;102580.03;5073959;28;20037;-61
2021/10/23 01:29:02;;;;;;;7.00;1.63;;;;;;;8.49;75.23;102575.63;5073543;28;20021;-59
2021/10/23 01:31:28;;;;;;;7.60;1.48;;;;;;;8.37;76.30;102574.81;5073175;28;20550;-61
2021/10/23 01:33:55;;;;;;;11.38;1.90;;;;;;;8.25;76.64;102568.75;5072641;28;20036;-59
2021/10/23 01:36:21;;;;;;;8.52;1.55;;;;;;;8.10;77.03;102581.16;5073684;28;20024;-59
2021/10/23 01:38:47;;;;;;;6.20;1.70;;;;;;;7.94;78.48;102579.50;5073661;28;20435;-59
2021/10/23 01:41:14;;;;;;;10.63;1.40;;;;;;;7.91;78.67;102576.91;5072626;28;20059;-59
2021/10/23 01:43:39;;;;;;;6.78;1.33;;;;;;;7.93;78.95;102565.44;5073420;28;20021;-63
2021/10/23 01:46:06;;;;;;;6.88;1.10;;;;;;;7.96;79.25;102578.59;5073361;28;20499;-59
2021/10/23 01:48:36;;;;;;;8.85;1.60;;;;;;;7.97;79.58;102580.38;5073147;28;20024;-59
2021/10/23 01:51:02;;;;;;;4.03;1.00;;;;;;;7.95;79.93;102582.13;5072523;28;20032;-62
2021/10/23 01:53:27;;;;;;;4.38;1.30;;;;;;;7.91;81.29;102587.44;5073410;28;20021;-59
2021/10/23 01:55:52;;;;;;;5.22;1.20;;;;;;;7.78;81.74;102578.72;5073239;28;20074;-60
2021/10/23 01:58:19;;;;;;;8.15;1.45;;;;;;;7.67;82.08;102573.50;5073262;28;20032;-58
2021/10/23 02:00:45;;;;;;;3.22;1.02;;;;;;;7.54;82.28;102573.56;5072761;28;20037;-59
2021/10/23 02:03:10;;;;;;;5.40;1.20;;;;;;;7.38;82.58;102578.00;5072824;28;20032;-59
2021/10/23 02:05:35;;;;;;;4.38;0.90;;;;;;;7.21;83.26;102574.53;5072783;28;20377;-63
2021/10/23 02:08:01;;;;;;;7.88;1.38;;;;;;;7.10;83.57;102584.22;5073323;28;20116;-63
2021/10/23 02:10:26;;;;;;;6.95;1.42;;;;;;;7.01;84.84;102583.38;5072849;28;20025;-58
2021/10/23 02:12:51;;;;;;;6.22;1.73;;;;;;;6.93;85.32;102579.91;5072432;28;20029;-59
2021/10/23 02:15:17;;;;;;;4.43;1.27;;;;;;;6.93;85.03;102572.00;5072983;28;20484;-60
2021/10/23 02:17:42;;;;;;;5.15;1.17;;;;;;;6.93;84.46;102577.25;5072927;28;20027;-59
2021/10/23 02:20:09;;;;;;;5.90;1.42;;;;;;;6.89;84.81;102583.38;5072543;28;20427;-59
2021/10/23 02:22:35;;;;;;;6.75;1.55;;;;;;;6.82;85.03;102589.56;5072529;28;20428;-60
2021/10/23 02:25:01;;;;;;;7.68;1.42;;;;;;;6.71;85.02;102582.56;5072275;28;20362;-63
2021/10/23 02:27:26;;;;;;;4.88;1.13;;;;;;;6.61;85.78;102595.69;5072861;28;20052;-59
2021/10/23 02:29:51;;;;;;;5.88;1.50;;;;;;;6.53;86.32;102595.69;5072848;28;20101;-59
2021/10/23 02:32:17;;;;;;;7.50;1.25;;;;;;;6.44;86.63;102595.69;5072305;28;20527;-58
2021/10/23 02:34:43;;;;;;;7.10;1.40;;;;;;;6.33;87.87;102598.31;5072370;28;20177;-60
2021/10/23 02:37:08;;;;;;;7.55;1.40;;;;;;;6.26;88.61;102591.31;5072603;28;20028;-58
2021/10/23 02:39:34;;;;;;;7.88;1.75;;;;;;;6.23;88.77;102594.81;5072522;28;20020;-59
2021/10/23 02:41:59;;;;;;;4.30;1.15;;;;;;;6.18;88.70;102588.66;5072687;28;20024;-61
2021/10/23 02:44:25;;;;;;;5.22;1.30;;;;;;;6.16;88.71;102583.38;5071628;28;20031;-59
2021/10/23 02:46:51;;;;;;;4.47;1.40;;;;;;;6.12;89.57;102586.00;5054857;28;20103;-58
2021/10/23 02:49:17;;;;;;;6.38;1.73;;;;;;;6.07;89.69;102593.88;5072731;28;20059;-59
2021/10/23 02:51:43;;;;;;;5.03;1.60;;;;;;;5.99;89.16;102583.34;5072059;28;20036;-59
2021/10/23 02:54:09;;;;;;;6.40;1.60;;;;;;;5.96;89.68;102590.31;5072171;28;20140;-59
2021/10/23 02:56:35;;;;;;;3.30;1.10;;;;;;;5.93;90.70;102585.91;5054121;28;20060;-59
2021/10/23 02:59:00;;;;;;;4.63;1.42;;;;;;;5.90;90.44;102586.78;5072471;28;20023;-59
2021/10/23 03:01:26;;;;;;;9.75;2.88;;;;;;;5.86;90.65;102589.44;5072768;28;20020;-60
2021/10/23 03:03:51;;;;;;;6.45;2.10;;;;;;;5.80;92.51;102592.03;5072432;28;20028;-60
2021/10/23 03:06:18;;;;;;;12.85;1.98;;;;;;;5.75;92.89;102594.63;5071240;28;20029;-59
2021/10/23 03:08:44;;;;;;;7.50;1.70;;;;;;;5.67;92.35;102604.25;5072344;28;20033;-59
2021/10/23 03:11:10;;;;;;;5.18;1.50;;;;;;;5.61;92.54;102601.59;5072299;28;20063;-60
2021/10/23 03:13:35;;;;;;;5.43;1.60;;;;;;;5.54;92.61;102593.69;5072318;28;20099;-60
2021/10/23 03:16:00;;;;;;;8.00;1.48;;;;;;;5.53;92.84;102599.81;5071954;28;20048;-63
2021/10/23 03:18:26;;;;;;;5.35;1.10;;;;;;;5.48;92.79;102596.28;5071936;28;20353;-60
2021/10/23 03:20:51;;;;;;;15.65;2.20;;;;;;;5.44;93.75;102612.03;5072271;28;20082;-57
2021/10/23 03:23:16;;;;;;;5.45;1.60;;;;;;;5.40;93.55;102614.63;5076181;28;20016;-58
2021/10/23 03:25:45;;;;;;;4.80;1.60;;;;;;;5.37;94.25;102613.72;5075704;28;20032;-58
2021/10/23 03:28:12;;;;;;;8.45;2.65;;;;;;;5.32;94.02;102616.34;5075832;28;20024;-58
2021/10/23 03:30:37;;;;;;;5.25;1.70;;;;;;;5.28;94.67;102621.56;5075663;28;20083;-59
2021/10/23 03:33:02;;;;;;;6.93;1.80;;;;;;;5.24;94.79;102621.56;5076059;28;20048;-58
2021/10/23 03:35:28;;;;;;;6.85;1.80;;;;;;;5.21;94.53;102626.78;5076304;28;20368;-63
2021/10/23 03:37:53;;;;;;;7.22;1.70;;;;;;;5.17;94.93;102621.50;5074907;28;20495;-60
2021/10/23 03:40:19;;;;;;;6.68;1.90;;;;;;;5.18;95.30;102618.00;5075806;28;20052;-60
2021/10/23 03:42:44;;;;;;;12.90;2.30;;;;;;;5.23;94.78;102624.16;5075945;28;20051;-59
2021/10/23 03:45:09;;;;;;;5.50;1.85;;;;;;;5.21;94.83;102623.28;5075776;28;20032;-63
2021/10/23 03:47:35;;;;;;;8.68;2.05;;;;;;;5.17;95.00;102626.75;5075443;28;20024;-58
2021/10/23 03:50:00;;;;;;;7.72;2.30;;;;;;;5.14;94.78;102634.59;5075284;28;20029;-59
2021/10/23 03:52:26;;;;;;;11.50;2.20;;;;;;;5.15;95.29;102631.13;5075403;28;20020;-60
2021/10/23 03:54:51;;;;;;;8.50;2.20;;;;;;;5.20;95.73;102630.25;5075508;28;20032;-61
2021/10/23 03:57:16;;;;;;;9.25;2.38;;;;;;;5.20;96.04;102630.25;5075422;28;20469;-60
2021/10/23 03:59:42;;;;;;;6.78;2.20;;;;;;;5.21;95.63;102639.91;5075056;28;20031;-59
2021/10/23 04:02:07;;;;;;;5.80;1.80;;;;;;;5.17;95.90;102634.66;5075779;28;20035;-60
2021/10/23 04:04:33;;;;;;;7.45;2.00;;;;;;;5.11;96.23;102643.34;5075516;28;20127;-61
2021/10/23 04:06:58;;;;;;;3.08;1.60;;;;;;;5.06;95.33;102638.06;5075274;28;20464;-63
2021/10/23 04:09:24;;;;;;;5.72;2.00;;;;;;;5.03;95.33;102638.03;5074687;28;20149;-60
2021/10/23 04:11:49;;;;;;;7.40;1.90;;;;;;;4.98;95.37;102642.38;5075112;28;20357;-57
2021/10/23 04:14:14;;;;;;;5.97;1.90;;;;;;;4.95;95.98;102633.59;5075286;28;20082;-60
2021/10/23 04:16:40;;;;;;;10.35;2.53;;;;;;;4.91;96.52;102640.56;5075253;28;20025;-58
2021/10/23 04:19:06;;;;;;;8.20;2.20;;;;;;;4.86;96.41;102635.28;5074790;28;20472;-60
2021/10/23 04:21:31;;;;;;;9.68;2.70;;;;;;;4.85;96.44;102630.91;5074611;28;20032;-59
2021/10/23 04:23:56;;;;;;;11.00;2.55;;;;;;;4.85;97.10;102625.66;5074839;28;20499;-58
2021/10/23 04:26:21;;;;;;;10.50;2.92;;;;;;;4.86;97.01;102637.03;5075076;28;20032;-62
2021/10/23 04:28:47;;;;;;;10.18;2.08;;;;;;;4.88;96.94;102632.69;5075288;28;20091;-58
2021/10/23 04:31:12;;;;;;;5.40;1.88;;;;;;;4.90;96.67;102633.56;5074264;28;20396;-58
2021/10/23 04:33:38;;;;;;;5.60;2.03;;;;;;;4.86;96.90;102634.41;5073710;28;20384;-59
2021/10/23 04:36:03;;;;;;;4.82;2.10;;;;;;;4.80;96.50;102627.38;5074784;28;20024;-63
2021/10/23 04:38:29;;;;;;;5.63;1.90;;;;;;;4.78;96.92;102636.09;5074832;28;20472;-59
2021/10/23 04:40:54;;;;;;;7.57;2.05;;;;;;;4.81;97.84;102642.25;5074275;28;20032;-57
2021/10/23 04:43:20;;;;;;;6.40;2.10;;;;;;;4.82;97.72;102643.13;5074748;28;20025;-58
2021/10/23 04:45:45;;;;;;;7.00;2.30;;;;;;;4.82;98.03;102644.03;5074717;28;20476;-58
2021/10/23 04:48:10;;;;;;;6.18;1.95;;;;;;;4.83;97.99;102643.13;5074745;28;20538;-61
2021/10/23 04:50:36;;;;;;;6.47;2.10;;;;;;;4.84;98.20;102634.38;5074042;28;20392;-59
2021/10/23 04:53:01;;;;;;;9.27;2.13;;;;;;;4.86;98.75;102642.28;5074171;28;20050;-58
2021/10/23 04:55:26;;;;;;;9.00;2.38;;;;;;;4.87;99.03;102644.94;5074089;28;20024;-61
2021/10/23 04:57:52;;;;;;;5.72;2.33;;;;;;;4.91;98.49;102651.97;5074518;28;20028;-59
2021/10/23 05:00:18;;;;;;;8.75;2.30;;;;;;;4.99;98.78;102651.16;5074592;28;20031;-58
2021/10/23 05:02:43;;;;;;;6.97;2.15;;;;;;;5.04;98.47;102641.56;5073971;28;20162;-59
2021/10/23 05:05:09;;;;;;;5.82;2.13;;;;;;;5.06;98.63;102645.06;5073888;28;20032;-62
2021/10/23 05:07:34;;;;;;;7.07;2.20;;;;;;;5.05;98.54;102645.91;5074104;28;20103;-59
2021/10/23 05:10:00;;;;;;;7.28;2.20;;;;;;;5.03;97.96;102653.78;5073930;28;20029;-58
2021/10/23 05:12:25;;;;;;;9.75;2.38;;;;;;;5.04;98.11;102655.56;5073845;28;20071;-57
2021/10/23 05:14:51;;;;;;;9.52;2.40;;;;;;;5.08;98.54;102654.69;5074103;28;20113;-58
2021/10/23 05:17:16;;;;;;;8.68;2.97;;;;;;;5.11;98.60;102663.47;5073679;28;20129;-58
2021/10/23 05:19:41;;;;;;;8.20;2.05;;;;;;;5.15;99.34;102666.13;5073787;28;20085;-55
2021/10/23 05:22:08;;;;;;;10.50;2.45;;;;;;;5.19;98.79;102660.06;5073869;28;20100;-58
2021/10/23 05:24:34;;;;;;;9.93;2.70;;;;;;;5.28;99.00;102672.38;5055180;28;21140;-57
2021/10/23 05:26:59;;;;;;;11.77;2.63;;;;;;;5.35;99.29;102676.78;5073309;28;20115;-61
2021/10/23 05:29:24;;;;;;;4.45;2.08;;;;;;;5.46;99.43;102673.34;5073560;28;20108;-57
2021/10/23 05:31:50;;;;;;;7.60;2.40;;;;;;;5.57;99.44;102676.91;5073573;28;20132;-56
2021/10/23 05:34:15;;;;;;;6.72;2.60;;;;;;;5.64;99.12;102677.81;5073348;28;20115;-61
2021/10/23 05:36:40;;;;;;;5.00;2.00;;;;;;;5.70;99.05;102677.84;5073229;28;20469;-60
2021/10/23 05:39:06;;;;;;;10.52;2.45;;;;;;;5.71;98.76;102671.72;5073695;28;20032;-58
2021/10/23 05:41:31;;;;;;;6.53;2.47;;;;;;;5.74;98.92;102674.38;5073311;28;20099;-59
2021/10/23 05:43:56;;;;;;;7.28;2.22;;;;;;;5.78;98.56;102677.88;5072821;28;20158;-56
2021/10/23 05:46:21;;;;;;;7.00;2.30;;;;;;;5.82;99.10;102675.28;5073085;28;20380;-59
2021/10/23 05:48:47;;;;;;;9.98;2.60;;;;;;;5.86;98.74;102674.44;5073414;28;20024;-57
2021/10/23 05:51:13;;;;;;;10.13;2.58;;;;;;;5.88;98.10;102672.69;5073269;28;20029;-60
2021/10/23 05:53:38;;;;;;;9.60;2.80;;;;;;;6.01;98.50;102686.81;5073377;28;20025;-56
2021/10/23 05:56:04;;;;;;;5.15;2.22;;;;;;;6.07;99.06;102684.19;5072637;28;20032;-60
2021/10/23 05:58:30;;;;;;;9.80;2.58;;;;;;;6.14;98.21;102692.09;5072935;28;20032;-60
2021/10/23 06:01:00;;;;;;;6.55;2.22;;;;;;;6.17;98.86;102692.13;5073227;28;20032;-58
2021/10/23 06:03:29;;;;;;;4.05;2.30;;;;;;;6.18;98.40;102697.38;5073132;28;20039;-61
2021/10/23 06:05:55;;;;;;;7.40;2.50;;;;;;;6.19;98.30;102701.78;5072774;28;20115;-61
2021/10/23 06:08:21;;;;;;;9.73;2.72;;;;;;;6.22;98.48;102709.66;5072789;28;20044;-59
2021/10/23 06:10:46;;;;;;;12.85;3.30;;;;;;;6.26;98.64;102704.44;5073143;28;20020;-59
2021/10/23 06:13:12;;;;;;;9.32;3.15;;;;;;;6.26;98.59;102707.94;5072505;28;20025;-60
2021/10/23 06:15:37;;;;;;;7.93;2.97;;;;;;;6.26;98.17;102707.06;5072802;28;20556;-59
2021/10/23 06:18:03;;;;;;;8.25;3.03;;;;;;;6.31;98.80;102719.34;5071977;28;20032;-59
2021/10/23 06:20:29;;;;;;;11.15;3.20;;;;;;;6.38;98.27;102714.97;5069094;28;20039;-56
2021/10/23 06:22:55;;;;;;;12.82;2.72;;;;;;;6.48;98.19;102714.13;5071307;28;20029;-55
2021/10/23 06:25:21;;;;;;;7.60;2.50;;;;;;;6.60;98.22;102715.03;5072355;28;20384;-60
2021/10/23 06:27:47;;;;;;;10.80;2.67;;;;;;;6.69;98.14;102707.16;5071566;28;20016;-58
2021/10/23 06:30:13;;;;;;;8.40;2.65;;;;;;;6.78;98.49;102724.69;5072103;28;20086;-57
2021/10/23 06:32:58;;;;;;;12.45;2.90;;;;;;;6.91;98.28;102728.25;5072667;28;20102;-52
2021/10/23 06:35:24;;;;;;;10.55;2.65;;;;;;;6.97;98.21;102733.50;5072180;28;20040;-59
2021/10/23 06:37:50;;;;;;;7.45;2.72;;;;;;;7.01;98.14;102722.13;5072583;28;20035;-62
2021/10/23 06:40:15;;;;;;;6.63;2.80;;;;;;;7.05;98.11;102730.00;5054138;28;20044;-56
2021/10/23 06:42:42;;;;;;;9.52;3.20;;;;;;;7.11;98.20;102737.03;5072135;28;20033;-58
2021/10/23 06:45:09;;;;;;;8.98;2.72;;;;;;;7.16;98.21;102735.28;5072600;28;20032;-54
2021/10/23 06:47:36;;;;;;;11.93;3.05;;;;;;;7.25;98.26;102736.16;5073063;28;20049;-61
2021/10/23 06:50:02;;;;;;;7.93;2.97;;;;;;;7.30;98.20;102737.94;5071480;28;20027;-59
2021/10/23 06:52:27;;;;;;;11.32;4.53;;;;;;;7.42;98.46;102731.75;5072747;28;20426;-60
2021/10/23 06:54:53;;;;;;;15.38;4.53;;;;;;;7.53;98.35;102742.28;5072740;28;20099;-60
2021/10/23 06:57:18;;;;;;;10.23;4.07;;;;;;;7.61;98.47;102727.34;5071800;28;20028;-58
2021/10/23 06:59:44;;;;;;;9.63;3.35;;;;;;;7.71;98.35;102730.81;5071849;28;20405;-59
2021/10/23 07:02:09;;;;;;;10.52;3.30;;;;;;;7.76;98.39;102739.59;5071730;28;20070;-55
2021/10/23 07:04:34;;;;;;;8.35;3.25;;;;;;;7.82;98.21;102742.22;5071829;28;20033;-59
2021/10/23 07:07:00;;;;;;;8.90;3.20;;;;;;;7.88;98.12;102742.19;5072657;28;20056;-59
2021/10/23 07:09:25;;;;;;;8.73;3.22;;;;;;;7.98;98.16;102740.41;5072132;28;20048;-56
2021/10/23 07:11:51;;;;;;;11.90;3.65;;;;;;;8.00;97.52;102754.47;5069958;28;20477;-59
2021/10/23 07:14:16;;;;;;;9.65;3.03;;;;;;;8.10;97.79;102763.22;5061705;28;20024;-54
2021/10/23 07:16:41;;;;;;;7.70;3.50;;;;;;;8.20;97.73;102769.38;5064264;28;20078;-52
2021/10/23 07:19:06;;;;;;;11.13;3.30;;;;;;;8.27;97.68;102751.75;5072144;28;20494;-55
2021/10/23 07:21:32;;;;;;;9.65;3.97;;;;;;;8.33;97.44;102764.91;5071600;28;20031;-52
2021/10/23 07:23:59;;;;;;;12.63;3.85;;;;;;;8.40;97.17;102766.66;5072391;28;20444;-57
2021/10/23 07:26:25;;;;;;;11.80;4.03;;;;;;;8.44;96.92;102762.22;5072091;28;20040;-58
2021/10/23 07:28:50;;;;;;;12.63;4.50;;;;;;;8.47;97.06;102755.19;5072087;28;20025;-59
2021/10/23 07:31:15;;;;;;;9.85;3.60;;;;;;;8.53;96.64;102759.56;5071416;28;20719;-59
2021/10/23 07:33:41;;;;;;;10.77;4.68;;;;;;;8.61;96.42;102762.19;5072003;28;20376;-58
2021/10/23 07:36:06;;;;;;;24.70;7.80;;;;;;;8.63;96.74;102768.31;5075757;28;20032;-60
2021/10/23 07:38:31;;;;;;;13.05;4.80;;;;;;;8.67;96.25;102765.66;5072504;28;20498;-59
2021/10/23 07:41:00;;;;;;;15.48;6.53;;;;;;;8.73;96.43;102770.00;5071995;28;20098;-57
2021/10/23 07:43:25;;;;;;;19.73;7.18;;;;;;;8.77;96.98;102770.88;5081960;28;20101;-60
2021/10/23 07:45:51;;;;;;;20.75;7.45;;;;;;;8.83;96.58;102773.47;5088181;28;20028;-57
2021/10/23 07:48:17;;;;;;;23.55;8.27;;;;;;;8.85;96.90;102775.22;5072142;28;20499;-61
2021/10/23 07:50:43;;;;;;;16.10;6.68;;;;;;;8.96;97.06;102775.13;5071428;28;20376;-56
2021/10/23 07:53:09;;;;;;;26.52;9.40;;;;;;;9.09;96.89;102785.63;5071156;28;20020;-52
2021/10/23 07:55:34;;;;;;;25.05;8.55;;;;;;;9.18;96.63;102791.72;5066466;28;20442;-59
2021/10/23 07:58:01;;;;;;;12.95;5.80;;;;;;;9.29;96.03;102788.13;5071960;28;20419;-52
2021/10/23 08:00:26;;;;;;;13.80;5.97;;;;;;;9.33;95.60;102795.13;5070352;28;20460;-60
2021/10/23 08:02:53;;;;;;;15.50;5.93;;;;;;;9.43;94.97;102786.22;5071356;28;20033;-59
2021/10/23 08:05:21;;;;;;;14.52;6.47;;;;;;;9.48;94.66;102791.50;5070758;28;20095;-60
2021/10/23 08:07:46;;;;;;;12.80;6.00;;;;;;;9.50;94.46;102795.88;5073016;28;20107;-59
2021/10/23 08:10:12;;;;;;;17.70;7.45;;;;;;;9.49;94.50;102794.13;5075208;28;20059;-59
2021/10/23 08:12:37;;;;;;;16.40;7.05;;;;;;;9.53;94.96;102794.97;5074769;28;20024;-60
2021/10/23 08:15:03;;;;;;;14.63;5.53;;;;;;;9.55;95.00;102797.59;5074595;28;20028;-59
2021/10/23 08:17:28;;;;;;;14.68;6.20;;;;;;;9.58;94.38;102806.38;5074969;28;20051;-59
2021/10/23 08:19:55;;;;;;;16.50;6.07;;;;;;;9.60;94.52;102803.72;5057217;28;20094;-60
2021/10/23 08:22:21;;;;;;;13.45;5.90;;;;;;;9.62;93.68;102802.81;5074943;28;20021;-59
2021/10/23 08:24:48;;;;;;;14.88;6.47;;;;;;;9.66;93.19;102806.31;5075055;28;20441;-63
2021/10/23 08:27:13;;;;;;;20.88;7.78;;;;;;;9.67;93.68;102810.72;5074830;28;20029;-62
2021/10/23 08:29:39;;;;;;;17.90;6.28;;;;;;;9.73;93.16;102815.97;5074796;28;20025;-59
2021/10/23 08:32:04;;;;;;;15.25;8.07;;;;;;;9.74;93.17;102815.03;5073821;28;20044;-60
2021/10/23 08:34:29;;;;;;;15.50;6.72;;;;;;;9.72;93.18;102818.59;5074675;28;20028;-62
2021/10/23 08:36:55;;;;;;;21.90;8.75;;;;;;;9.73;93.46;102813.31;5074447;28;20032;-62
2021/10/23 08:39:20;;;;;;;22.20;9.07;;;;;;;9.78;93.47;102818.53;5074658;28;20056;-63
2021/10/23 08:41:46;;;;;;;15.73;6.50;;;;;;;9.82;93.33;102817.59;5074689;28;20055;-62
2021/10/23 08:44:14;;;;;;;21.25;8.20;;;;;;;9.84;93.21;102819.34;5079352;28;20030;-63
2021/10/23 08:46:40;;;;;;;59.45;14.00;;;;;;;9.87;92.97;102825.50;5094702;28;20024;-62
2021/10/23 08:49:06;;;;;;;24.80;8.45;;;;;;;9.90;92.44;102825.47;5093406;28;20031;-60
2021/10/23 08:51:33;;;;;;;12.10;5.95;;;;;;;9.92;92.49;102829.84;5074314;28;20392;-63
2021/10/23 08:53:59;;;;;;;12.20;5.95;;;;;;;9.98;92.13;102828.94;5071769;28;20029;-59
2021/10/23 08:56:24;;;;;;;10.27;5.90;;;;;;;10.00;91.88;102833.31;5078147;28;20220;-62
2021/10/23 08:58:50;;;;;;;10.70;5.70;;;;;;;10.02;91.42;102835.06;5074557;28;20028;-61
2021/10/23 09:01:16;;;;;;;11.13;5.43;;;;;;;10.05;91.48;102835.03;5073538;28;20059;-62
2021/10/23 09:03:48;;;;;;;13.65;5.70;;;;;;;10.04;91.47;102838.56;5073849;28;20043;-58
2021/10/23 09:06:27;;;;;;;11.43;6.30;;;;;;;10.06;91.49;102836.78;5073843;28;20107;-58
2021/10/23 09:09:07;;;;;;;14.63;6.13;;;;;;;10.13;91.18;102836.72;5074329;28;20037;-58
2021/10/23 09:11:36;;;;;;;15.02;6.28;;;;;;;10.19;90.91;102837.53;5073331;28;20040;-55
2021/10/23 09:14:23;;;;;;;13.98;5.78;;;;;;;10.18;90.81;102839.31;5074015;28;20036;-58
2021/10/23 09:16:58;;;;;;;10.35;5.30;;;;;;;10.22;90.84;102840.13;5073549;28;20032;-58
2021/10/23 09:19:31;;;;;;;12.23;6.22;;;;;;;10.25;89.94;102833.03;5072475;28;20055;-57
2021/10/23 09:21:57;;;;;;;10.45;5.30;;;;;;;10.25;89.00;102835.69;5072844;28;20474;-59
2021/10/23 09:24:23;;;;;;;8.68;5.18;;;;;;;10.26;88.54;102829.50;5073907;28;20043;-59
2021/10/23 09:26:50;;;;;;;9.75;5.00;;;;;;;10.28;87.38;102829.47;5072626;28;20388;-55
2021/10/23 09:29:21;;;;;;;10.48;4.90;;;;;;;10.34;86.80;102832.06;5072496;28;20029;-57
2021/10/23 09:31:48;;;;;;;12.02;5.50;;;;;;;10.40;86.53;102832.03;5071909;28;20048;-51
2021/10/23 09:34:18;;;;;;;14.05;5.55;;;;;;;10.42;87.12;102845.25;5073059;28;20399;-57
2021/10/23 09:36:53;;;;;;;9.38;5.22;;;;;;;10.49;86.05;102845.16;5072829;28;20147;-54
2021/10/23 09:39:28;;;;;;;9.65;4.93;;;;;;;10.50;85.65;102851.34;5073143;28;20020;-58
2021/10/23 09:42:17;;;;;;;13.10;5.35;;;;;;;10.49;84.82;102844.28;5072611;28;20025;-59
2021/10/23 09:45:00;;;;;;;11.23;5.18;;;;;;;10.49;85.38;102839.84;5082190;28;20093;-57
2021/10/23 09:47:29;;;;;;;9.40;5.22;;;;;;;10.56;85.24;102843.31;5076479;28;20040;-53
2021/10/23 09:50:09;;;;;;;13.45;4.70;;;;;;;10.68;83.99;102836.09;5071175;28;20055;-57
2021/10/23 09:52:57;;;;;;;13.02;5.40;;;;;;;10.78;84.00;102835.97;5073155;28;20062;-58
2021/10/23 09:55:24;;;;;;;10.93;4.97;;;;;;;10.87;83.44;102842.00;5073206;28;20464;-58
2021/10/23 09:58:14;;;;;;;11.52;5.20;;;;;;;10.97;82.54;102839.22;5069348;28;20477;-56
2021/10/23 10:00:40;;;;;;;11.20;5.45;;;;;;;11.10;81.88;102841.69;5053008;28;20036;-58
2021/10/23 10:03:07;;;;;;;14.10;5.68;;;;;;;11.08;81.47;102849.66;5069529;28;20036;-59
2021/10/23 10:05:34;;;;;;;12.57;5.30;;;;;;;11.10;81.70;102841.69;5072000;28;20029;-58
2021/10/23 10:08:06;;;;;;;10.75;5.68;;;;;;;11.07;81.35;102855.00;5072468;28;20031;-57
2021/10/23 10:10:34;;;;;;;12.05;6.10;;;;;;;11.16;81.57;102852.19;5072450;28;20423;-58
2021/10/23 10:13:01;;;;;;;11.52;5.97;;;;;;;11.12;80.53;102855.81;5072039;28;20064;-56
2021/10/23 10:15:29;;;;;;;11.77;5.90;;;;;;;11.16;81.13;102857.50;5072691;28;20029;-58
2021/10/23 10:17:55;;;;;;;13.52;6.28;;;;;;;11.23;80.23;102861.81;5072795;28;20024;-62
2021/10/23 10:20:21;;;;;;;11.73;6.18;;;;;;;11.18;80.59;102858.38;5069127;28;20040;-59
2021/10/23 10:22:53;;;;;;;11.18;6.47;;;;;;;11.10;79.64;102855.84;5071809;28;20396;-58
2021/10/23 10:25:22;;;;;;;12.82;6.82;;;;;;;11.14;80.46;102856.66;5075350;28;20036;-58
2021/10/23 10:27:47;;;;;;;14.82;7.28;;;;;;;11.17;80.30;102866.34;5071975;28;20040;-62
2021/10/23 10:30:29;;;;;;;15.52;6.75;;;;;;;11.20;80.32;102866.28;5071051;28;20075;-56
2021/10/23 10:33:19;;;;;;;14.20;7.25;;;;;;;11.18;80.32;102863.66;5071451;28;20040;-60
2021/10/23 10:35:58;;;;;;;14.32;7.50;;;;;;;11.19;80.69;102867.19;5082141;28;20686;-57
2021/10/23 10:39:22;;;;;;;14.57;8.38;;;;;;;11.21;80.76;102871.56;5065544;28;20036;-61
2021/10/23 10:44:19;;;;;;;19.23;8.70;;;;;;;11.19;81.22;102867.19;5006657;28;20562;-58
2021/10/23 10:47:05;;;;;;;14.43;9.63;;;;;;;11.23;81.04;102856.53;5006302;28;20045;-56
2021/10/23 10:49:54;;;;;;;16.48;8.95;;;;;;;11.30;81.20;102865.25;5009183;28;20030;-59
2021/10/23 10:52:49;;;;;;;17.15;9.32;;;;;;;11.23;81.08;102863.63;5000153;28;20100;-57
2021/10/23 10:55:16;;;;;;;16.85;9.00;;;;;;;11.29;81.23;102871.44;5010371;28;20052;-56
2021/10/23 10:58:06;;;;;;;14.85;8.70;;;;;;;11.28;81.12;102864.41;5009099;28;20065;-57
2021/10/23 11:00:52;;;;;;;12.77;8.30;;;;;;;11.26;81.39;102859.13;5000616;28;20507;-58
2021/10/23 11:03:38;;;;;;;17.05;8.52;;;;;;;11.32;81.77;102871.41;4990765;28;20525;-55
2021/10/23 11:06:32;;;;;;;15.38;8.55;;;;;;;11.36;81.75;102873.13;5002411;28;20041;-58
2021/10/23 11:09:16;;;;;;;12.57;7.63;;;;;;;11.37;81.12;102861.63;5001638;28;20038;-62
2021/10/23 11:11:47;;;;;;;15.65;8.00;;;;;;;11.30;80.73;102852.88;5010301;28;20478;-57
2021/10/23 11:14:22;;;;;;;19.70;8.88;;;;;;;11.26;80.85;102858.25;4997489;28;20074;-59
2021/10/23 11:17:01;;;;;;;17.70;8.35;;;;;;;11.29;81.31;102851.13;4991989;28;20048;-58
2021/10/23 11:19:46;;;;;;;13.32;7.53;;;;;;;11.33;81.04;102849.31;5001354;28;20469;-58
2021/10/23 11:22:17;;;;;;;16.77;7.97;;;;;;;11.34;81.30;102844.88;5069992;28;20044;-54
2021/10/23 11:24:48;;;;;;;14.32;7.13;;;;;;;11.37;81.54;102844.81;5069337;28;20029;-56
2021/10/23 11:27:28;;;;;;;14.13;7.65;;;;;;;11.40;81.28;102850.94;5084354;28;20111;-59
2021/10/23 11:30:33;;;;;;;16.13;8.07;;;;;;;11.41;81.45;102851.84;5071150;28;20025;-58
2021/10/23 11:33:04;;;;;;;11.75;7.57;;;;;;;11.45;81.25;102850.88;5071773;28;20101;-59